Hampstead, New Hampshire
Current Conditions -  °F | °C
As of 3:54 AM on Sunday 23 Nov 2014 (Local Time) from KLWM Reporting Station
Broken Clouds Broken Clouds  
Wind Chill: 37°   Ceiling: 11000
Heat Index: 42°   Visibility: 10mi
Dew Point: 25°   Wind: 8mph
Humidity: 51%   Direction: 230°SW
Pressure: 30.08"   Gusts: NA
Location:  42.87°N, 71.18°W
Report Text: KLWM 230854Z AUTO 23007KT 10SM BKN110 06/M04 A3008 RMK AO2 SLP185 T00561039 51008
Loading
Personal Weather Stations






























Interactive Weather Map New forecast layout! Learn more

10-Day Weather Forecast

Advertisements
Track Severe Weather on mobile